createdAt,value
2022-08-26T00:01:44.187Z,20.19
2022-08-26T00:04:12.428Z,19.95
2022-08-26T00:06:42.287Z,20.11
2022-08-26T00:09:09.883Z,19.82
2022-08-26T00:11:37.007Z,19.79
2022-08-26T00:14:03.792Z,19.77
2022-08-26T00:16:31.938Z,19.86
2022-08-26T00:18:58.964Z,19.78
2022-08-26T00:21:25.575Z,19.56
2022-08-26T00:23:52.211Z,19.62
2022-08-26T00:26:19.145Z,19.64
2022-08-26T00:28:47.578Z,19.58
2022-08-26T00:31:14.618Z,19.63
2022-08-26T00:33:41.955Z,19.71
2022-08-26T00:36:09.537Z,19.68
2022-08-26T00:38:46.821Z,19.80
2022-08-26T00:41:13.508Z,19.83
2022-08-26T00:43:47.709Z,19.72
2022-08-26T00:46:21.762Z,19.65
2022-08-26T00:48:52.266Z,19.56
2022-08-26T00:51:24.766Z,19.63
2022-08-26T00:54:05.590Z,19.60
2022-08-26T00:56:41.589Z,19.43
2022-08-26T00:59:11.920Z,19.30
2022-08-26T01:01:41.308Z,19.39
2022-08-26T01:04:09.811Z,19.39
2022-08-26T01:06:36.703Z,19.42
2022-08-26T01:09:04.464Z,19.54
2022-08-26T01:11:32.550Z,19.47
2022-08-26T01:14:02.739Z,19.47
2022-08-26T01:16:30.632Z,19.31
2022-08-26T01:19:06.498Z,19.33
2022-08-26T01:21:41.237Z,19.38
2022-08-26T01:24:10.372Z,19.38
2022-08-26T01:26:41.375Z,19.06
2022-08-26T01:29:13.186Z,19.22
2022-08-26T01:31:45.973Z,19.20
2022-08-26T01:34:30.419Z,18.81
2022-08-26T01:37:13.668Z,19.14
2022-08-26T01:39:44.876Z,19.19
2022-08-26T01:42:14.653Z,19.25
2022-08-26T01:44:56.472Z,19.06
2022-08-26T01:47:26.546Z,18.97
2022-08-26T01:49:55.323Z,19.05
2022-08-26T01:52:28.241Z,18.97
2022-08-26T01:54:56.869Z,19.12
2022-08-26T01:57:24.661Z,19.08
2022-08-26T01:59:55.197Z,19.23
2022-08-26T02:02:23.393Z,19.14
2022-08-26T02:04:57.354Z,19.02
2022-08-26T02:07:26.668Z,18.96
2022-08-26T02:09:54.057Z,19.06
2022-08-26T02:12:21.111Z,19.09
2022-08-26T02:14:53.736Z,19.08
2022-08-26T02:17:23.705Z,18.81
2022-08-26T02:19:50.780Z,18.94
2022-08-26T02:22:22.785Z,18.86
2022-08-26T02:25:06.973Z,18.69
2022-08-26T02:27:35.765Z,18.60
2022-08-26T02:30:32.610Z,18.61
2022-08-26T02:33:03.747Z,18.73
2022-08-26T02:35:32.562Z,18.69
2022-08-26T02:38:00.360Z,18.66
2022-08-26T02:40:31.649Z,18.68
2022-08-26T02:42:58.486Z,18.76
2022-08-26T02:45:28.951Z,18.77
2022-08-26T02:47:58.545Z,18.83
2022-08-26T02:50:26.954Z,18.65
2022-08-26T02:52:53.752Z,18.62
2022-08-26T02:55:20.583Z,18.72
2022-08-26T02:57:47.212Z,18.63
2022-08-26T03:00:15.460Z,18.57
2022-08-26T03:02:42.268Z,18.55
2022-08-26T03:05:09.770Z,18.54
2022-08-26T03:07:36.382Z,18.54
2022-08-26T03:10:08.311Z,18.51
2022-08-26T03:12:35.758Z,18.49
2022-08-26T03:15:02.518Z,18.53
2022-08-26T03:17:46.371Z,18.48
2022-08-26T03:20:13.666Z,18.48
2022-08-26T03:22:42.850Z,18.41
2022-08-26T03:25:12.900Z,18.27
2022-08-26T03:27:41.585Z,18.22
2022-08-26T03:30:30.736Z,18.33
2022-08-26T03:32:57.714Z,18.11
2022-08-26T03:35:25.896Z,18.29
2022-08-26T03:37:53.590Z,18.30
2022-08-26T03:40:21.636Z,18.21
2022-08-26T03:42:49.227Z,18.22
2022-08-26T03:45:17.218Z,18.28
2022-08-26T03:47:48.009Z,18.31
2022-08-26T03:50:22.586Z,18.18
2022-08-26T03:52:51.917Z,18.27
2022-08-26T03:55:19.961Z,18.27
2022-08-26T03:57:50.826Z,18.33
2022-08-26T04:00:18.673Z,18.18
2022-08-26T04:02:48.893Z,17.95
2022-08-26T04:05:17.619Z,17.94
2022-08-26T04:07:44.735Z,17.98
2022-08-26T04:10:13.606Z,17.94
2022-08-26T04:12:42.434Z,17.75
2022-08-26T04:15:13.698Z,17.90
2022-08-26T04:17:40.982Z,17.93
2022-08-26T04:20:09.025Z,17.91
2022-08-26T04:22:35.767Z,17.87
2022-08-26T04:25:02.707Z,17.81
2022-08-26T04:27:33.778Z,17.82
2022-08-26T04:30:01.050Z,17.88
2022-08-26T04:32:27.716Z,17.90
2022-08-26T04:34:54.301Z,17.97
2022-08-26T04:37:25.112Z,18.01
2022-08-26T04:39:53.079Z,17.83
2022-08-26T04:42:22.797Z,17.96
2022-08-26T04:44:52.802Z,18.04
2022-08-26T04:47:19.389Z,18.08
2022-08-26T04:49:45.980Z,18.02
2022-08-26T04:52:12.734Z,17.99
2022-08-26T04:54:39.410Z,18.07
2022-08-26T04:57:08.687Z,18.22
2022-08-26T04:59:39.166Z,18.12
2022-08-26T05:02:07.029Z,18.28
2022-08-26T05:04:34.167Z,18.28
2022-08-26T05:07:02.770Z,18.38
2022-08-26T05:09:29.802Z,18.49
2022-08-26T05:11:57.262Z,18.59
2022-08-26T05:14:23.924Z,18.43
2022-08-26T05:16:51.441Z,18.73
2022-08-26T05:19:19.259Z,19.52
2022-08-26T05:21:47.174Z,20.01
2022-08-26T05:24:14.700Z,20.42
2022-08-26T05:26:41.643Z,20.85
2022-08-26T05:29:11.397Z,21.16
2022-08-26T05:31:38.102Z,21.49
2022-08-26T05:34:05.929Z,21.91
2022-08-26T05:36:35.925Z,21.97
2022-08-26T05:39:05.932Z,22.27
2022-08-26T05:41:36.416Z,22.63
2022-08-26T05:44:06.266Z,22.87
2022-08-26T05:46:34.565Z,23.01
2022-08-26T05:49:01.486Z,23.25
2022-08-26T05:51:30.407Z,23.73
2022-08-26T05:53:58.415Z,24.11
2022-08-26T05:56:26.230Z,23.96
2022-08-26T05:58:53.892Z,24.32
2022-08-26T06:01:26.439Z,24.54
2022-08-26T06:03:56.865Z,24.83
2022-08-26T06:06:32.321Z,25.11
2022-08-26T06:09:01.287Z,25.33
2022-08-26T06:11:32.168Z,25.49
2022-08-26T06:14:03.944Z,25.58
2022-08-26T06:16:32.715Z,25.98
2022-08-26T06:19:02.876Z,26.12
2022-08-26T06:21:32.152Z,26.00
2022-08-26T06:24:26.874Z,25.87
2022-08-26T06:26:56.914Z,25.85
2022-08-26T06:29:27.570Z,25.77
2022-08-26T06:31:56.204Z,26.14
2022-08-26T06:34:29.869Z,26.21
2022-08-26T06:36:59.799Z,26.42
2022-08-26T06:39:28.284Z,26.81
2022-08-26T06:41:57.800Z,26.44
2022-08-26T06:44:24.604Z,25.79
2022-08-26T06:46:51.382Z,25.73
2022-08-26T06:49:26.870Z,25.17
2022-08-26T06:51:56.521Z,24.70
2022-08-26T06:54:23.080Z,24.41
2022-08-26T06:56:49.758Z,24.28
2022-08-26T06:59:16.378Z,24.22
2022-08-26T07:01:46.836Z,24.34
2022-08-26T07:04:22.145Z,24.39
2022-08-26T07:06:52.656Z,24.64
2022-08-26T07:09:22.519Z,25.57
2022-08-26T07:11:49.589Z,26.41
2022-08-26T07:14:19.349Z,26.94
2022-08-26T07:16:49.054Z,27.38
2022-08-26T07:19:27.618Z,27.82
2022-08-26T07:22:03.421Z,27.77
2022-08-26T07:24:35.465Z,27.77
2022-08-26T07:27:06.776Z,27.77
2022-08-26T07:29:36.280Z,28.52
2022-08-26T07:32:04.206Z,28.43
2022-08-26T07:34:33.142Z,28.86
2022-08-26T07:37:00.452Z,28.63
2022-08-26T07:39:28.320Z,29.13
2022-08-26T07:41:59.590Z,28.96
2022-08-26T07:44:27.300Z,29.08
2022-08-26T07:46:54.268Z,29.11
2022-08-26T07:49:23.624Z,29.29
2022-08-26T07:51:51.398Z,29.88
2022-08-26T07:54:19.514Z,30.24
2022-08-26T07:56:48.659Z,29.96
2022-08-26T07:59:17.646Z,30.11
2022-08-26T08:01:45.910Z,30.44
2022-08-26T08:04:14.788Z,30.70
2022-08-26T08:06:41.889Z,30.61
2022-08-26T08:09:11.843Z,29.56
2022-08-26T08:11:38.455Z,30.04
2022-08-26T08:14:08.324Z,30.43
2022-08-26T08:16:37.253Z,30.54
2022-08-26T08:19:05.777Z,30.43
2022-08-26T08:21:32.400Z,30.21
2022-08-26T08:23:59.006Z,30.21
2022-08-26T08:26:26.613Z,30.26
2022-08-26T08:28:57.806Z,30.20
2022-08-26T08:31:56.176Z,30.45
2022-08-26T08:34:17.114Z,31.11
2022-08-26T08:36:46.369Z,31.35
2022-08-26T08:39:13.340Z,31.25
2022-08-26T08:42:09.104Z,30.96
2022-08-26T08:44:41.916Z,31.54
2022-08-26T08:47:20.739Z,31.40
2022-08-26T08:49:47.951Z,31.54
2022-08-26T08:52:35.177Z,31.87
2022-08-26T08:55:06.209Z,31.62
2022-08-26T08:58:02.594Z,31.73
2022-08-26T09:00:39.809Z,31.67
2022-08-26T09:03:35.522Z,31.54
2022-08-26T09:06:05.508Z,31.66
2022-08-26T09:08:35.847Z,32.15
2022-08-26T09:11:03.783Z,32.45
2022-08-26T09:13:31.737Z,32.04
2022-08-26T09:16:10.117Z,32.25
2022-08-26T09:19:04.951Z,32.07
2022-08-26T09:21:32.298Z,32.36
2022-08-26T09:24:00.301Z,32.50
2022-08-26T09:26:38.862Z,32.26
2022-08-26T09:29:24.699Z,31.76
2022-08-26T09:31:53.010Z,31.31
2022-08-26T09:34:27.131Z,31.57
2022-08-26T09:37:00.379Z,31.87
2022-08-26T09:39:37.851Z,32.29
2022-08-26T09:42:11.333Z,32.38
2022-08-26T09:45:01.899Z,32.65
2022-08-26T09:47:41.525Z,32.47
2022-08-26T09:50:28.919Z,32.43
2022-08-26T09:53:28.739Z,32.44
2022-08-26T09:56:14.879Z,32.40
2022-08-26T09:58:45.169Z,32.51
2022-08-26T10:01:23.834Z,32.70
2022-08-26T10:03:51.493Z,32.52
2022-08-26T10:06:18.161Z,32.29
2022-08-26T10:08:52.222Z,32.71
2022-08-26T10:11:39.918Z,32.65
2022-08-26T10:14:21.459Z,32.20
2022-08-26T10:17:03.337Z,32.50
2022-08-26T10:19:55.864Z,32.35
2022-08-26T10:22:41.070Z,32.15
2022-08-26T10:25:14.240Z,32.66
2022-08-26T10:28:00.134Z,32.86
2022-08-26T10:30:37.024Z,32.92
2022-08-26T10:33:12.966Z,33.66
2022-08-26T10:36:01.877Z,33.49
2022-08-26T10:38:40.292Z,33.58
2022-08-26T10:41:18.037Z,33.68
2022-08-26T10:44:00.383Z,33.25
2022-08-26T10:46:34.558Z,32.53
2022-08-26T10:49:11.077Z,31.86
2022-08-26T10:52:05.386Z,31.56
2022-08-26T10:54:53.498Z,31.10
2022-08-26T10:57:46.479Z,31.23
2022-08-26T11:00:50.892Z,31.25
2022-08-26T11:03:23.524Z,31.15
2022-08-26T11:06:18.256Z,31.14
2022-08-26T11:08:49.081Z,31.15
2022-08-26T11:11:36.060Z,31.14
2022-08-26T11:14:05.797Z,30.94
2022-08-26T11:16:42.946Z,30.92
2022-08-26T11:19:18.862Z,31.41
2022-08-26T11:21:51.231Z,31.77
2022-08-26T11:24:54.725Z,32.71
2022-08-26T11:27:27.189Z,33.07
2022-08-26T11:29:59.825Z,33.04
2022-08-26T11:32:45.362Z,32.95
2022-08-26T11:35:18.651Z,32.37
2022-08-26T11:37:48.203Z,32.22
2022-08-26T11:40:21.304Z,32.02
2022-08-26T11:43:03.312Z,32.15
2022-08-26T11:45:46.671Z,32.21
2022-08-26T11:48:27.050Z,32.06
2022-08-26T11:51:00.591Z,31.13
2022-08-26T11:53:29.854Z,30.97
2022-08-26T11:55:59.360Z,30.91
2022-08-26T11:58:27.723Z,31.03
2022-08-26T12:00:58.513Z,31.06
2022-08-26T12:03:45.791Z,31.02
2022-08-26T12:06:43.320Z,31.18
2022-08-26T12:09:25.730Z,31.09
2022-08-26T12:11:54.194Z,30.78
2022-08-26T12:14:27.336Z,30.84
2022-08-26T12:16:55.153Z,30.83
2022-08-26T12:19:32.746Z,30.64
2022-08-26T12:22:18.974Z,30.19
2022-08-26T12:24:58.584Z,29.83
2022-08-26T12:27:31.739Z,29.76
2022-08-26T12:30:19.290Z,29.52
2022-08-26T12:32:58.216Z,29.52
2022-08-26T12:35:26.974Z,29.44
2022-08-26T12:37:55.237Z,29.40
2022-08-26T12:40:33.397Z,29.17
2022-08-26T12:43:02.692Z,29.35
2022-08-26T12:45:33.705Z,29.11
2022-08-26T12:48:10.568Z,29.32
2022-08-26T12:50:44.318Z,29.43
2022-08-26T12:53:10.834Z,29.33
2022-08-26T12:55:45.391Z,29.15
2022-08-26T12:58:37.594Z,28.99
2022-08-26T13:01:04.325Z,29.19
2022-08-26T13:03:43.360Z,28.74
2022-08-26T13:06:15.684Z,29.07
2022-08-26T13:08:48.162Z,28.88
2022-08-26T13:11:34.684Z,28.67
2022-08-26T13:14:07.018Z,28.81
2022-08-26T13:16:35.239Z,28.61
2022-08-26T13:19:06.069Z,28.43
2022-08-26T13:21:48.394Z,28.26
2022-08-26T13:24:20.129Z,28.42
2022-08-26T13:26:51.891Z,28.30
2022-08-26T13:29:18.910Z,28.43
2022-08-26T13:31:46.317Z,28.42
2022-08-26T13:34:18.269Z,28.13
2022-08-26T13:36:50.614Z,27.62
2022-08-26T13:39:18.006Z,27.69
2022-08-26T13:41:44.968Z,27.51
2022-08-26T13:44:11.710Z,27.52
2022-08-26T13:46:40.316Z,27.00
2022-08-26T13:49:07.708Z,26.72
2022-08-26T13:51:34.414Z,26.94
2022-08-26T13:54:01.075Z,26.86
2022-08-26T13:56:29.744Z,26.87
2022-08-26T13:58:57.418Z,26.74
2022-08-26T14:01:24.883Z,26.39
2022-08-26T14:03:51.851Z,25.90
2022-08-26T14:06:19.355Z,26.24
2022-08-26T14:08:46.140Z,26.45
2022-08-26T14:11:13.083Z,26.03
2022-08-26T14:13:39.747Z,26.12
2022-08-26T14:16:15.999Z,25.82
2022-08-26T14:18:47.323Z,26.15
2022-08-26T14:21:16.987Z,25.93
2022-08-26T14:23:43.656Z,26.13
2022-08-26T14:26:11.673Z,26.06
2022-08-26T14:28:55.258Z,25.67
2022-08-26T14:31:23.607Z,25.54
2022-08-26T14:33:50.341Z,25.25
2022-08-26T14:36:28.921Z,24.87
2022-08-26T14:38:57.153Z,25.25
2022-08-26T14:41:25.506Z,25.19
2022-08-26T14:44:00.290Z,25.45
2022-08-26T14:46:32.011Z,25.04
2022-08-26T14:49:01.054Z,25.21
2022-08-26T14:51:29.866Z,25.13
2022-08-26T14:54:12.324Z,24.52
2022-08-26T14:56:42.732Z,24.23
2022-08-26T14:59:11.330Z,24.53
2022-08-26T15:01:39.010Z,24.64
2022-08-26T15:04:05.694Z,24.63
2022-08-26T15:06:36.009Z,24.75
2022-08-26T15:09:03.747Z,24.48
2022-08-26T15:11:32.949Z,24.71
2022-08-26T15:14:00.048Z,24.49
2022-08-26T15:16:28.493Z,24.60
2022-08-26T15:18:55.584Z,24.58
2022-08-26T15:21:24.887Z,24.63
2022-08-26T15:23:52.742Z,24.81
2022-08-26T15:26:20.390Z,24.72
2022-08-26T15:28:47.469Z,24.59
2022-08-26T15:31:14.221Z,24.37
2022-08-26T15:33:40.873Z,24.64
2022-08-26T15:36:08.744Z,24.56
2022-08-26T15:38:39.119Z,24.65
2022-08-26T15:41:08.662Z,24.80
2022-08-26T15:43:38.964Z,24.73
2022-08-26T15:46:10.950Z,24.77
2022-08-26T15:48:38.573Z,24.74
2022-08-26T15:51:06.199Z,24.52
2022-08-26T15:53:34.525Z,23.98
2022-08-26T15:56:02.113Z,24.27
2022-08-26T15:58:29.751Z,24.53
2022-08-26T16:00:57.362Z,24.54
2022-08-26T16:03:23.996Z,24.36
2022-08-26T16:05:50.741Z,24.03
2022-08-26T16:08:18.959Z,24.06
2022-08-26T16:10:50.513Z,24.27
2022-08-26T16:13:19.794Z,23.95
2022-08-26T16:15:48.075Z,23.95
2022-08-26T16:18:15.683Z,23.80
2022-08-26T16:21:12.442Z,23.66
2022-08-26T16:23:39.881Z,23.81
2022-08-26T16:26:11.447Z,23.70
2022-08-26T16:28:38.957Z,23.77
2022-08-26T16:31:06.920Z,23.52
2022-08-26T16:33:33.597Z,23.53
2022-08-26T16:36:00.274Z,23.49
2022-08-26T16:38:26.950Z,23.43
2022-08-26T16:40:53.506Z,23.46
2022-08-26T16:43:20.110Z,23.65
2022-08-26T16:45:46.791Z,23.54
2022-08-26T16:48:13.493Z,23.50
2022-08-26T16:50:42.197Z,23.58
2022-08-26T16:53:16.239Z,23.39
2022-08-26T16:55:50.445Z,23.49
2022-08-26T16:58:21.953Z,23.58
2022-08-26T17:00:49.670Z,23.29
2022-08-26T17:03:18.360Z,23.00
2022-08-26T17:05:44.996Z,22.98
2022-08-26T17:08:14.528Z,23.30
2022-08-26T17:10:51.601Z,23.18
2022-08-26T17:13:35.882Z,23.04
2022-08-26T17:16:05.049Z,22.82
2022-08-26T17:18:34.083Z,22.88
2022-08-26T17:21:03.486Z,22.68
2022-08-26T17:23:30.129Z,22.91
2022-08-26T17:25:57.186Z,22.97
2022-08-26T17:28:23.793Z,22.87
2022-08-26T17:30:50.698Z,22.91
2022-08-26T17:33:21.989Z,22.75
2022-08-26T17:35:51.470Z,22.91
2022-08-26T17:38:18.079Z,22.72
2022-08-26T17:40:45.724Z,22.72
2022-08-26T17:43:12.715Z,22.65
2022-08-26T17:45:40.568Z,22.83
2022-08-26T17:48:08.096Z,22.58
2022-08-26T17:50:35.010Z,22.73
2022-08-26T17:53:01.734Z,22.55
2022-08-26T17:55:29.091Z,22.54
2022-08-26T17:57:55.686Z,22.47
2022-08-26T18:00:26.494Z,22.41
2022-08-26T18:02:55.074Z,22.51
2022-08-26T18:05:22.297Z,22.26
2022-08-26T18:07:49.049Z,22.27
2022-08-26T18:10:18.186Z,22.41
2022-08-26T18:12:45.281Z,22.36
2022-08-26T18:15:13.742Z,22.32
2022-08-26T18:17:40.589Z,22.27
2022-08-26T18:20:15.080Z,22.16
2022-08-26T18:22:42.557Z,22.33
2022-08-26T18:25:12.428Z,22.06
2022-08-26T18:27:39.363Z,22.01
2022-08-26T18:30:11.356Z,22.21
2022-08-26T18:32:40.220Z,22.07
2022-08-26T18:35:07.936Z,22.22
2022-08-26T18:37:34.591Z,22.24
2022-08-26T18:40:01.297Z,22.08
2022-08-26T18:42:28.504Z,22.03
2022-08-26T18:44:55.080Z,22.13
2022-08-26T18:47:22.723Z,22.25
2022-08-26T18:49:50.936Z,22.10
2022-08-26T18:52:17.529Z,22.20
2022-08-26T18:54:44.211Z,22.05
2022-08-26T18:57:11.599Z,22.10
2022-08-26T18:59:38.903Z,21.95
2022-08-26T19:02:05.690Z,21.81
2022-08-26T19:04:33.669Z,21.97
2022-08-26T19:07:00.321Z,22.17
2022-08-26T19:09:27.280Z,22.08
2022-08-26T19:14:23.020Z,21.86
2022-08-26T19:16:52.483Z,21.90
2022-08-26T19:19:21.213Z,21.82
2022-08-26T19:21:47.866Z,21.64
2022-08-26T19:24:17.618Z,22.01
2022-08-26T19:26:50.341Z,21.93
2022-08-26T19:29:25.623Z,21.82
2022-08-26T19:31:52.253Z,21.83
2022-08-26T19:34:20.875Z,21.77
2022-08-26T19:36:48.279Z,21.77
2022-08-26T19:39:15.176Z,21.70
2022-08-26T19:41:41.864Z,21.87
2022-08-26T19:44:12.913Z,21.79
2022-08-26T19:46:39.738Z,21.99
2022-08-26T19:49:06.466Z,21.81
2022-08-26T19:51:34.752Z,21.81
2022-08-26T19:54:01.548Z,21.56
2022-08-26T19:56:38.033Z,21.48
2022-08-26T19:59:13.610Z,21.49
2022-08-26T20:01:40.520Z,21.65
2022-08-26T20:04:14.382Z,21.63
2022-08-26T20:06:40.993Z,21.67
2022-08-26T20:09:08.980Z,21.62
2022-08-26T20:11:36.025Z,21.51
2022-08-26T20:14:04.837Z,21.35
2022-08-26T20:16:32.851Z,21.32
2022-08-26T20:19:20.423Z,21.41
2022-08-26T20:21:47.169Z,21.29
2022-08-26T20:24:20.931Z,21.36
2022-08-26T20:26:48.938Z,21.38
2022-08-26T20:29:17.406Z,21.16
2022-08-26T20:31:46.757Z,21.19
2022-08-26T20:34:15.042Z,21.18
2022-08-26T20:36:42.575Z,21.21
2022-08-26T20:39:10.754Z,21.23
2022-08-26T20:41:38.347Z,21.19
2022-08-26T20:44:05.698Z,20.97
2022-08-26T20:46:34.670Z,20.83
2022-08-26T20:49:01.446Z,20.91
2022-08-26T20:51:28.583Z,20.89
2022-08-26T20:53:55.192Z,20.54
2022-08-26T20:56:24.353Z,20.60
2022-08-26T20:58:54.240Z,20.63
2022-08-26T21:01:24.462Z,20.73
2022-08-26T21:03:52.700Z,20.70
2022-08-26T21:06:25.632Z,20.53
2022-08-26T21:08:54.725Z,20.72
2022-08-26T21:11:23.135Z,20.75
2022-08-26T21:14:07.045Z,20.58
2022-08-26T21:16:41.840Z,20.33
2022-08-26T21:19:10.735Z,20.39
2022-08-26T21:21:37.916Z,20.52
2022-08-26T21:24:04.707Z,20.38
2022-08-26T21:26:31.477Z,20.32
2022-08-26T21:28:58.097Z,20.55
2022-08-26T21:31:25.543Z,20.15
2022-08-26T21:33:52.838Z,20.20
2022-08-26T21:36:20.234Z,20.48
2022-08-26T21:38:47.303Z,20.29
2022-08-26T21:41:18.753Z,20.42
2022-08-26T21:43:46.261Z,20.18
2022-08-26T21:46:16.515Z,20.41
2022-08-26T21:48:50.683Z,20.42
2022-08-26T21:51:20.139Z,20.41
2022-08-26T21:53:47.360Z,20.18
2022-08-26T21:56:21.433Z,20.28
2022-08-26T21:58:48.680Z,20.00
2022-08-26T22:01:22.161Z,19.81
2022-08-26T22:03:52.656Z,19.57
2022-08-26T22:06:22.646Z,19.25
2022-08-26T22:08:50.365Z,19.43
2022-08-26T22:11:17.516Z,19.12
2022-08-26T22:13:45.682Z,19.49
2022-08-26T22:16:13.345Z,19.73
2022-08-26T22:18:43.273Z,19.71
2022-08-26T22:21:18.180Z,19.53
2022-08-26T22:23:45.442Z,19.40
2022-08-26T22:26:14.380Z,19.64
2022-08-26T22:28:41.038Z,19.38
2022-08-26T22:31:10.179Z,19.41
2022-08-26T22:33:41.116Z,19.62
2022-08-26T22:36:08.122Z,19.65
2022-08-26T22:38:34.771Z,19.50
2022-08-26T22:41:03.426Z,19.60
2022-08-26T22:43:33.265Z,19.53
2022-08-26T22:45:59.927Z,19.66
2022-08-26T22:48:26.971Z,19.54
2022-08-26T22:50:59.688Z,19.46
2022-08-26T22:53:27.042Z,19.40
2022-08-26T22:55:54.264Z,19.38
2022-08-26T22:58:21.631Z,19.33
2022-08-26T23:00:57.705Z,19.28
2022-08-26T23:03:26.638Z,19.33
2022-08-26T23:05:53.530Z,19.42
2022-08-26T23:08:20.483Z,19.33
2022-08-26T23:10:48.347Z,19.28
2022-08-26T23:13:17.113Z,19.41
2022-08-26T23:15:44.705Z,19.48
2022-08-26T23:18:13.634Z,19.56
2022-08-26T23:20:41.016Z,19.46
2022-08-26T23:23:08.333Z,19.26
2022-08-26T23:25:36.964Z,19.12
2022-08-26T23:28:04.194Z,19.25
2022-08-26T23:30:32.610Z,19.31
2022-08-26T23:32:59.583Z,19.18
2022-08-26T23:35:29.390Z,19.17
2022-08-26T23:37:57.797Z,19.24
2022-08-26T23:40:28.801Z,19.26
2022-08-26T23:42:57.315Z,19.23
2022-08-26T23:45:25.639Z,19.22
2022-08-26T23:47:54.652Z,19.26
2022-08-26T23:50:43.903Z,19.28
2022-08-26T23:53:11.041Z,19.16
2022-08-26T23:55:39.223Z,19.22
2022-08-26T23:58:06.605Z,19.28
